sensor_id;sensor_type;location;lat;lon;timestamp;P1;durP1;ratioP1;P2;durP2;ratioP2
17361;SDS011;8798;51.938;4.348;2024-03-07T00:01:26;38.00;;;16.33;;
17361;SDS011;8798;51.938;4.348;2024-03-07T00:03:54;32.43;;;16.20;;
17361;SDS011;8798;51.938;4.348;2024-03-07T00:06:22;33.07;;;15.97;;
17361;SDS011;8798;51.938;4.348;2024-03-07T00:08:50;36.00;;;15.67;;
17361;SDS011;8798;51.938;4.348;2024-03-07T00:11:19;38.70;;;16.30;;
17361;SDS011;8798;51.938;4.348;2024-03-07T00:13:47;35.40;;;17.20;;
17361;SDS011;8798;51.938;4.348;2024-03-07T00:16:16;35.33;;;16.37;;
17361;SDS011;8798;51.938;4.348;2024-03-07T00:18:44;39.97;;;18.27;;
17361;SDS011;8798;51.938;4.348;2024-03-07T00:21:12;37.70;;;17.73;;
17361;SDS011;8798;51.938;4.348;2024-03-07T00:23:40;34.73;;;17.33;;
17361;SDS011;8798;51.938;4.348;2024-03-07T00:26:08;38.40;;;17.50;;
17361;SDS011;8798;51.938;4.348;2024-03-07T00:28:37;36.03;;;16.63;;
17361;SDS011;8798;51.938;4.348;2024-03-07T00:31:06;35.80;;;17.13;;
17361;SDS011;8798;51.938;4.348;2024-03-07T00:33:35;40.43;;;17.63;;
17361;SDS011;8798;51.938;4.348;2024-03-07T00:36:23;34.10;;;17.10;;
17361;SDS011;8798;51.938;4.348;2024-03-07T00:38:51;38.00;;;16.67;;
17361;SDS011;8798;51.938;4.348;2024-03-07T00:41:19;38.83;;;17.97;;
17361;SDS011;8798;51.938;4.348;2024-03-07T00:43:48;41.67;;;18.83;;
17361;SDS011;8798;51.938;4.348;2024-03-07T00:46:17;41.77;;;18.60;;
17361;SDS011;8798;51.938;4.348;2024-03-07T00:48:44;40.10;;;18.07;;
17361;SDS011;8798;51.938;4.348;2024-03-07T00:51:13;32.93;;;15.90;;
17361;SDS011;8798;51.938;4.348;2024-03-07T00:53:42;33.80;;;16.10;;
17361;SDS011;8798;51.938;4.348;2024-03-07T00:56:10;36.23;;;16.77;;
17361;SDS011;8798;51.938;4.348;2024-03-07T00:58:38;36.97;;;16.30;;
17361;SDS011;8798;51.938;4.348;2024-03-07T01:01:07;30.67;;;15.63;;
17361;SDS011;8798;51.938;4.348;2024-03-07T01:03:38;35.30;;;16.70;;
17361;SDS011;8798;51.938;4.348;2024-03-07T01:06:06;32.77;;;15.63;;
17361;SDS011;8798;51.938;4.348;2024-03-07T01:08:36;33.77;;;15.63;;
17361;SDS011;8798;51.938;4.348;2024-03-07T01:11:04;34.13;;;15.83;;
17361;SDS011;8798;51.938;4.348;2024-03-07T01:13:36;35.43;;;16.13;;
17361;SDS011;8798;51.938;4.348;2024-03-07T01:16:04;33.13;;;15.93;;
17361;SDS011;8798;51.938;4.348;2024-03-07T01:18:33;32.97;;;15.93;;
17361;SDS011;8798;51.938;4.348;2024-03-07T01:21:02;31.07;;;14.50;;
17361;SDS011;8798;51.938;4.348;2024-03-07T01:23:31;31.00;;;15.27;;
17361;SDS011;8798;51.938;4.348;2024-03-07T01:26:00;33.07;;;15.37;;
17361;SDS011;8798;51.938;4.348;2024-03-07T01:28:28;34.23;;;16.03;;
17361;SDS011;8798;51.938;4.348;2024-03-07T01:30:57;36.57;;;16.33;;
17361;SDS011;8798;51.938;4.348;2024-03-07T01:33:26;34.17;;;15.60;;
17361;SDS011;8798;51.938;4.348;2024-03-07T01:35:56;31.23;;;14.93;;
17361;SDS011;8798;51.938;4.348;2024-03-07T01:38:24;33.43;;;16.17;;
17361;SDS011;8798;51.938;4.348;2024-03-07T01:40:53;33.33;;;15.43;;
17361;SDS011;8798;51.938;4.348;2024-03-07T01:43:21;32.90;;;15.13;;
17361;SDS011;8798;51.938;4.348;2024-03-07T01:45:49;35.03;;;16.60;;
17361;SDS011;8798;51.938;4.348;2024-03-07T01:48:24;31.27;;;14.50;;
17361;SDS011;8798;51.938;4.348;2024-03-07T01:50:56;32.17;;;15.27;;
17361;SDS011;8798;51.938;4.348;2024-03-07T01:53:25;33.23;;;15.03;;
17361;SDS011;8798;51.938;4.348;2024-03-07T01:55:54;37.97;;;16.17;;
17361;SDS011;8798;51.938;4.348;2024-03-07T01:58:24;30.30;;;14.33;;
17361;SDS011;8798;51.938;4.348;2024-03-07T02:00:52;35.83;;;15.67;;
17361;SDS011;8798;51.938;4.348;2024-03-07T02:03:21;34.87;;;15.20;;
17361;SDS011;8798;51.938;4.348;2024-03-07T02:05:49;35.53;;;15.73;;
17361;SDS011;8798;51.938;4.348;2024-03-07T02:08:19;30.03;;;14.43;;
17361;SDS011;8798;51.938;4.348;2024-03-07T02:10:47;36.70;;;16.00;;
17361;SDS011;8798;51.938;4.348;2024-03-07T02:13:16;32.93;;;14.97;;
17361;SDS011;8798;51.938;4.348;2024-03-07T02:15:44;29.57;;;15.30;;
17361;SDS011;8798;51.938;4.348;2024-03-07T02:18:12;31.73;;;14.50;;
17361;SDS011;8798;51.938;4.348;2024-03-07T02:20:43;32.80;;;14.27;;
17361;SDS011;8798;51.938;4.348;2024-03-07T02:23:12;33.17;;;14.47;;
17361;SDS011;8798;51.938;4.348;2024-03-07T02:25:41;33.63;;;15.33;;
17361;SDS011;8798;51.938;4.348;2024-03-07T02:28:09;30.83;;;14.63;;
17361;SDS011;8798;51.938;4.348;2024-03-07T02:30:37;33.70;;;14.77;;
17361;SDS011;8798;51.938;4.348;2024-03-07T02:33:05;34.20;;;15.00;;
17361;SDS011;8798;51.938;4.348;2024-03-07T02:35:34;34.60;;;15.30;;
17361;SDS011;8798;51.938;4.348;2024-03-07T02:38:04;32.63;;;15.33;;
17361;SDS011;8798;51.938;4.348;2024-03-07T02:40:32;30.87;;;14.93;;
17361;SDS011;8798;51.938;4.348;2024-03-07T02:43:00;37.10;;;16.77;;
17361;SDS011;8798;51.938;4.348;2024-03-07T02:45:31;32.60;;;14.97;;
17361;SDS011;8798;51.938;4.348;2024-03-07T02:47:59;36.07;;;16.13;;
17361;SDS011;8798;51.938;4.348;2024-03-07T02:50:28;34.73;;;14.83;;
17361;SDS011;8798;51.938;4.348;2024-03-07T02:52:56;36.83;;;15.63;;
17361;SDS011;8798;51.938;4.348;2024-03-07T02:55:26;35.83;;;16.03;;
17361;SDS011;8798;51.938;4.348;2024-03-07T02:57:54;37.37;;;15.77;;
17361;SDS011;8798;51.938;4.348;2024-03-07T03:00:24;35.50;;;15.47;;
17361;SDS011;8798;51.938;4.348;2024-03-07T03:02:56;35.37;;;15.53;;
17361;SDS011;8798;51.938;4.348;2024-03-07T03:05:24;31.93;;;15.30;;
17361;SDS011;8798;51.938;4.348;2024-03-07T03:07:52;32.80;;;15.10;;
17361;SDS011;8798;51.938;4.348;2024-03-07T03:10:21;32.67;;;15.90;;
17361;SDS011;8798;51.938;4.348;2024-03-07T03:12:55;32.77;;;14.43;;
17361;SDS011;8798;51.938;4.348;2024-03-07T03:15:24;34.57;;;15.43;;
17361;SDS011;8798;51.938;4.348;2024-03-07T03:17:53;34.47;;;15.00;;
17361;SDS011;8798;51.938;4.348;2024-03-07T03:20:21;30.50;;;14.37;;
17361;SDS011;8798;51.938;4.348;2024-03-07T03:22:52;34.63;;;15.57;;
17361;SDS011;8798;51.938;4.348;2024-03-07T03:25:40;31.93;;;15.43;;
17361;SDS011;8798;51.938;4.348;2024-03-07T03:28:10;35.53;;;16.13;;
17361;SDS011;8798;51.938;4.348;2024-03-07T03:30:39;33.20;;;15.27;;
17361;SDS011;8798;51.938;4.348;2024-03-07T03:33:08;32.77;;;14.97;;
17361;SDS011;8798;51.938;4.348;2024-03-07T03:35:37;34.13;;;16.20;;
17361;SDS011;8798;51.938;4.348;2024-03-07T03:38:06;41.40;;;16.53;;
17361;SDS011;8798;51.938;4.348;2024-03-07T03:40:34;35.77;;;16.40;;
17361;SDS011;8798;51.938;4.348;2024-03-07T03:43:03;32.23;;;15.97;;
17361;SDS011;8798;51.938;4.348;2024-03-07T03:45:32;37.63;;;16.43;;
17361;SDS011;8798;51.938;4.348;2024-03-07T03:48:01;36.00;;;15.97;;
17361;SDS011;8798;51.938;4.348;2024-03-07T03:50:30;35.53;;;16.57;;
17361;SDS011;8798;51.938;4.348;2024-03-07T03:52:58;38.87;;;17.07;;
17361;SDS011;8798;51.938;4.348;2024-03-07T03:55:27;37.17;;;16.73;;
17361;SDS011;8798;51.938;4.348;2024-03-07T03:57:55;32.83;;;16.03;;
17361;SDS011;8798;51.938;4.348;2024-03-07T04:00:23;38.93;;;16.43;;
17361;SDS011;8798;51.938;4.348;2024-03-07T04:02:53;38.50;;;17.23;;
17361;SDS011;8798;51.938;4.348;2024-03-07T04:05:21;43.53;;;17.00;;
17361;SDS011;8798;51.938;4.348;2024-03-07T04:07:49;37.53;;;17.00;;
17361;SDS011;8798;51.938;4.348;2024-03-07T04:10:17;39.57;;;16.80;;
17361;SDS011;8798;51.938;4.348;2024-03-07T04:12:45;34.80;;;16.80;;
17361;SDS011;8798;51.938;4.348;2024-03-07T04:15:14;38.57;;;17.33;;
17361;SDS011;8798;51.938;4.348;2024-03-07T04:17:45;38.47;;;17.00;;
17361;SDS011;8798;51.938;4.348;2024-03-07T04:20:16;35.27;;;15.93;;
17361;SDS011;8798;51.938;4.348;2024-03-07T04:22:46;40.23;;;16.93;;
17361;SDS011;8798;51.938;4.348;2024-03-07T04:25:16;35.17;;;16.13;;
17361;SDS011;8798;51.938;4.348;2024-03-07T04:27:44;36.90;;;17.47;;
17361;SDS011;8798;51.938;4.348;2024-03-07T04:30:13;35.70;;;16.23;;
17361;SDS011;8798;51.938;4.348;2024-03-07T04:32:43;38.97;;;16.73;;
17361;SDS011;8798;51.938;4.348;2024-03-07T04:35:11;35.80;;;15.93;;
17361;SDS011;8798;51.938;4.348;2024-03-07T04:37:45;38.63;;;16.73;;
17361;SDS011;8798;51.938;4.348;2024-03-07T04:40:13;38.73;;;17.67;;
17361;SDS011;8798;51.938;4.348;2024-03-07T04:42:46;40.97;;;17.67;;
17361;SDS011;8798;51.938;4.348;2024-03-07T04:45:16;37.97;;;17.63;;
17361;SDS011;8798;51.938;4.348;2024-03-07T04:47:45;41.00;;;17.40;;
17361;SDS011;8798;51.938;4.348;2024-03-07T04:50:15;39.40;;;17.77;;
17361;SDS011;8798;51.938;4.348;2024-03-07T04:52:47;38.40;;;16.97;;
17361;SDS011;8798;51.938;4.348;2024-03-07T04:55:16;37.13;;;17.13;;
17361;SDS011;8798;51.938;4.348;2024-03-07T04:57:44;41.70;;;17.37;;
17361;SDS011;8798;51.938;4.348;2024-03-07T05:00:13;39.13;;;18.10;;
17361;SDS011;8798;51.938;4.348;2024-03-07T05:02:44;37.60;;;16.73;;
17361;SDS011;8798;51.938;4.348;2024-03-07T05:05:14;38.57;;;17.73;;
17361;SDS011;8798;51.938;4.348;2024-03-07T05:07:49;38.80;;;17.93;;
17361;SDS011;8798;51.938;4.348;2024-03-07T05:10:18;42.37;;;18.80;;
17361;SDS011;8798;51.938;4.348;2024-03-07T05:12:46;36.47;;;17.53;;
17361;SDS011;8798;51.938;4.348;2024-03-07T05:15:14;38.60;;;17.37;;
17361;SDS011;8798;51.938;4.348;2024-03-07T05:17:43;36.40;;;17.13;;
17361;SDS011;8798;51.938;4.348;2024-03-07T05:20:11;37.77;;;16.47;;
17361;SDS011;8798;51.938;4.348;2024-03-07T05:22:40;37.63;;;17.07;;
17361;SDS011;8798;51.938;4.348;2024-03-07T05:25:12;38.13;;;16.37;;
17361;SDS011;8798;51.938;4.348;2024-03-07T05:27:43;38.47;;;17.23;;
17361;SDS011;8798;51.938;4.348;2024-03-07T05:30:11;42.93;;;17.90;;
17361;SDS011;8798;51.938;4.348;2024-03-07T05:32:42;38.00;;;16.83;;
17361;SDS011;8798;51.938;4.348;2024-03-07T05:35:10;36.50;;;16.73;;
17361;SDS011;8798;51.938;4.348;2024-03-07T05:37:39;34.27;;;16.37;;
17361;SDS011;8798;51.938;4.348;2024-03-07T05:40:14;41.67;;;18.67;;
17361;SDS011;8798;51.938;4.348;2024-03-07T05:42:42;43.60;;;17.87;;
17361;SDS011;8798;51.938;4.348;2024-03-07T05:45:10;38.90;;;17.30;;
17361;SDS011;8798;51.938;4.348;2024-03-07T05:47:41;39.40;;;17.47;;
17361;SDS011;8798;51.938;4.348;2024-03-07T05:50:10;37.33;;;16.80;;
17361;SDS011;8798;51.938;4.348;2024-03-07T05:52:40;36.93;;;16.77;;
17361;SDS011;8798;51.938;4.348;2024-03-07T05:55:08;39.33;;;17.30;;
17361;SDS011;8798;51.938;4.348;2024-03-07T05:57:39;36.23;;;16.37;;
17361;SDS011;8798;51.938;4.348;2024-03-07T06:00:10;37.00;;;17.47;;
17361;SDS011;8798;51.938;4.348;2024-03-07T06:02:41;40.17;;;17.93;;
17361;SDS011;8798;51.938;4.348;2024-03-07T06:05:09;42.70;;;17.57;;
17361;SDS011;8798;51.938;4.348;2024-03-07T06:07:42;35.90;;;17.17;;
17361;SDS011;8798;51.938;4.348;2024-03-07T06:10:12;40.47;;;17.87;;
17361;SDS011;8798;51.938;4.348;2024-03-07T06:12:44;44.17;;;18.17;;
17361;SDS011;8798;51.938;4.348;2024-03-07T06:15:15;36.67;;;16.97;;
17361;SDS011;8798;51.938;4.348;2024-03-07T06:17:44;36.60;;;17.20;;
17361;SDS011;8798;51.938;4.348;2024-03-07T06:20:13;40.37;;;17.50;;
17361;SDS011;8798;51.938;4.348;2024-03-07T06:22:49;38.10;;;17.43;;
17361;SDS011;8798;51.938;4.348;2024-03-07T06:25:18;39.13;;;17.33;;
17361;SDS011;8798;51.938;4.348;2024-03-07T06:27:50;42.30;;;18.03;;
17361;SDS011;8798;51.938;4.348;2024-03-07T06:30:18;39.90;;;17.07;;
17361;SDS011;8798;51.938;4.348;2024-03-07T06:32:46;39.40;;;18.27;;
17361;SDS011;8798;51.938;4.348;2024-03-07T06:35:14;41.57;;;18.57;;
17361;SDS011;8798;51.938;4.348;2024-03-07T06:37:46;43.00;;;18.47;;
17361;SDS011;8798;51.938;4.348;2024-03-07T06:40:14;42.80;;;17.77;;
17361;SDS011;8798;51.938;4.348;2024-03-07T06:42:47;42.27;;;16.60;;
17361;SDS011;8798;51.938;4.348;2024-03-07T06:45:17;44.03;;;18.40;;
17361;SDS011;8798;51.938;4.348;2024-03-07T06:47:45;39.50;;;18.97;;
17361;SDS011;8798;51.938;4.348;2024-03-07T06:50:14;37.50;;;18.90;;
17361;SDS011;8798;51.938;4.348;2024-03-07T06:52:55;44.17;;;20.97;;
17361;SDS011;8798;51.938;4.348;2024-03-07T06:55:27;44.50;;;19.57;;
17361;SDS011;8798;51.938;4.348;2024-03-07T06:57:55;39.80;;;17.77;;
17361;SDS011;8798;51.938;4.348;2024-03-07T12:42:17;15.90;;;8.77;;
17361;SDS011;8798;51.938;4.348;2024-03-07T12:45:01;37.03;;;10.03;;
17361;SDS011;8798;51.938;4.348;2024-03-07T12:47:31;16.47;;;9.10;;
17361;SDS011;8798;51.938;4.348;2024-03-07T12:49:59;18.50;;;9.20;;
17361;SDS011;8798;51.938;4.348;2024-03-07T12:52:34;18.47;;;9.77;;
17361;SDS011;8798;51.938;4.348;2024-03-07T12:55:02;19.80;;;9.90;;
17361;SDS011;8798;51.938;4.348;2024-03-07T12:57:34;23.40;;;9.93;;
17361;SDS011;8798;51.938;4.348;2024-03-07T13:00:10;19.27;;;9.90;;
17361;SDS011;8798;51.938;4.348;2024-03-07T13:02:48;22.00;;;9.93;;
17361;SDS011;8798;51.938;4.348;2024-03-07T13:05:17;17.30;;;9.87;;
17361;SDS011;8798;51.938;4.348;2024-03-07T13:07:49;17.50;;;9.80;;
17361;SDS011;8798;51.938;4.348;2024-03-07T13:10:17;24.83;;;10.70;;
17361;SDS011;8798;51.938;4.348;2024-03-07T13:12:48;18.43;;;10.23;;
17361;SDS011;8798;51.938;4.348;2024-03-07T13:15:16;31.80;;;12.30;;
17361;SDS011;8798;51.938;4.348;2024-03-07T13:17:44;35.00;;;14.30;;
17361;SDS011;8798;51.938;4.348;2024-03-07T13:20:12;21.80;;;11.50;;
17361;SDS011;8798;51.938;4.348;2024-03-07T13:22:41;22.47;;;11.40;;
17361;SDS011;8798;51.938;4.348;2024-03-07T13:25:11;32.53;;;14.43;;
17361;SDS011;8798;51.938;4.348;2024-03-07T13:27:43;33.43;;;12.60;;
17361;SDS011;8798;51.938;4.348;2024-03-07T13:30:20;26.67;;;11.77;;
17361;SDS011;8798;51.938;4.348;2024-03-07T13:32:50;26.17;;;12.63;;
17361;SDS011;8798;51.938;4.348;2024-03-07T13:35:20;19.97;;;10.87;;
17361;SDS011;8798;51.938;4.348;2024-03-07T13:37:48;22.40;;;10.83;;
17361;SDS011;8798;51.938;4.348;2024-03-07T13:40:17;20.67;;;11.13;;
17361;SDS011;8798;51.938;4.348;2024-03-07T13:42:51;48.33;;;12.90;;
17361;SDS011;8798;51.938;4.348;2024-03-07T13:45:22;21.85;;;12.43;;
17361;SDS011;8798;51.938;4.348;2024-03-07T13:47:53;24.37;;;11.63;;
17361;SDS011;8798;51.938;4.348;2024-03-07T13:50:23;19.13;;;10.73;;
17361;SDS011;8798;51.938;4.348;2024-03-07T13:53:17;22.30;;;12.25;;
17361;SDS011;8798;51.938;4.348;2024-03-07T13:56:01;24.27;;;12.47;;
17361;SDS011;8798;51.938;4.348;2024-03-07T13:59:00;25.83;;;13.98;;
17361;SDS011;8798;51.938;4.348;2024-03-07T14:01:55;20.33;;;11.83;;
17361;SDS011;8798;51.938;4.348;2024-03-07T14:04:41;29.13;;;15.60;;
17361;SDS011;8798;51.938;4.348;2024-03-07T14:07:22;20.53;;;11.57;;
17361;SDS011;8798;51.938;4.348;2024-03-07T14:10:26;19.37;;;11.27;;
17361;SDS011;8798;51.938;4.348;2024-03-07T14:13:18;21.50;;;11.43;;
17361;SDS011;8798;51.938;4.348;2024-03-07T14:22:34;24.27;;;12.65;;
17361;SDS011;8798;51.938;4.348;2024-03-07T14:25:19;22.70;;;14.00;;
17361;SDS011;8798;51.938;4.348;2024-03-07T14:28:11;26.40;;;13.30;;
17361;SDS011;8798;51.938;4.348;2024-03-07T14:30:49;25.83;;;13.30;;
17361;SDS011;8798;51.938;4.348;2024-03-07T14:33:27;25.20;;;14.48;;
17361;SDS011;8798;51.938;4.348;2024-03-07T14:36:01;27.65;;;13.32;;
17361;SDS011;8798;51.938;4.348;2024-03-07T14:38:40;19.77;;;12.77;;
17361;SDS011;8798;51.938;4.348;2024-03-07T14:41:15;19.70;;;10.43;;
17361;SDS011;8798;51.938;4.348;2024-03-07T14:43:46;22.93;;;10.80;;
17361;SDS011;8798;51.938;4.348;2024-03-07T14:46:14;18.30;;;9.60;;
17361;SDS011;8798;51.938;4.348;2024-03-07T14:48:44;30.63;;;12.18;;
17361;SDS011;8798;51.938;4.348;2024-03-07T14:51:13;35.33;;;12.00;;
17361;SDS011;8798;51.938;4.348;2024-03-07T14:53:42;20.50;;;10.00;;
17361;SDS011;8798;51.938;4.348;2024-03-07T14:56:12;17.43;;;9.57;;
17361;SDS011;8798;51.938;4.348;2024-03-07T14:58:40;18.07;;;9.87;;
17361;SDS011;8798;51.938;4.348;2024-03-07T15:01:09;17.90;;;10.33;;
17361;SDS011;8798;51.938;4.348;2024-03-07T15:03:38;19.97;;;11.20;;
17361;SDS011;8798;51.938;4.348;2024-03-07T15:06:12;17.50;;;9.77;;
17361;SDS011;8798;51.938;4.348;2024-03-07T15:08:42;18.37;;;10.07;;
17361;SDS011;8798;51.938;4.348;2024-03-07T15:11:12;17.30;;;9.60;;
17361;SDS011;8798;51.938;4.348;2024-03-07T15:13:47;16.17;;;9.63;;
17361;SDS011;8798;51.938;4.348;2024-03-07T15:16:15;18.90;;;9.30;;
17361;SDS011;8798;51.938;4.348;2024-03-07T15:18:58;18.37;;;9.40;;
17361;SDS011;8798;51.938;4.348;2024-03-07T15:21:28;19.67;;;9.70;;
17361;SDS011;8798;51.938;4.348;2024-03-07T15:23:56;16.80;;;8.60;;
17361;SDS011;8798;51.938;4.348;2024-03-07T15:26:25;15.87;;;8.80;;
17361;SDS011;8798;51.938;4.348;2024-03-07T15:28:53;16.93;;;9.27;;
17361;SDS011;8798;51.938;4.348;2024-03-07T15:31:22;16.30;;;8.83;;
17361;SDS011;8798;51.938;4.348;2024-03-07T15:33:50;16.00;;;9.07;;
17361;SDS011;8798;51.938;4.348;2024-03-07T15:36:18;16.40;;;8.93;;
17361;SDS011;8798;51.938;4.348;2024-03-07T15:38:49;19.37;;;8.57;;
17361;SDS011;8798;51.938;4.348;2024-03-07T15:41:17;20.20;;;10.03;;
17361;SDS011;8798;51.938;4.348;2024-03-07T15:43:46;17.87;;;9.17;;
17361;SDS011;8798;51.938;4.348;2024-03-07T15:46:14;15.80;;;8.50;;
17361;SDS011;8798;51.938;4.348;2024-03-07T15:48:45;15.00;;;9.53;;
17361;SDS011;8798;51.938;4.348;2024-03-07T15:51:15;14.97;;;8.90;;
17361;SDS011;8798;51.938;4.348;2024-03-07T15:53:44;15.60;;;9.20;;
17361;SDS011;8798;51.938;4.348;2024-03-07T15:56:13;18.47;;;9.03;;
17361;SDS011;8798;51.938;4.348;2024-03-07T15:58:42;15.77;;;8.97;;
17361;SDS011;8798;51.938;4.348;2024-03-07T16:01:11;17.70;;;9.63;;
17361;SDS011;8798;51.938;4.348;2024-03-07T16:03:43;17.17;;;9.70;;
17361;SDS011;8798;51.938;4.348;2024-03-07T16:06:13;17.03;;;9.70;;
17361;SDS011;8798;51.938;4.348;2024-03-07T16:08:43;18.00;;;9.77;;
17361;SDS011;8798;51.938;4.348;2024-03-07T16:11:11;18.53;;;9.87;;
17361;SDS011;8798;51.938;4.348;2024-03-07T16:13:45;17.67;;;9.70;;
17361;SDS011;8798;51.938;4.348;2024-03-07T16:16:14;18.17;;;10.00;;
17361;SDS011;8798;51.938;4.348;2024-03-07T16:18:42;16.57;;;9.63;;
17361;SDS011;8798;51.938;4.348;2024-03-07T16:21:10;16.47;;;9.70;;
17361;SDS011;8798;51.938;4.348;2024-03-07T16:23:37;16.27;;;9.30;;
17361;SDS011;8798;51.938;4.348;2024-03-07T16:26:07;15.20;;;9.70;;
17361;SDS011;8798;51.938;4.348;2024-03-07T16:28:36;19.87;;;10.03;;
17361;SDS011;8798;51.938;4.348;2024-03-07T16:31:04;16.43;;;9.87;;
17361;SDS011;8798;51.938;4.348;2024-03-07T16:33:35;16.60;;;9.40;;
17361;SDS011;8798;51.938;4.348;2024-03-07T16:36:04;15.53;;;8.93;;
17361;SDS011;8798;51.938;4.348;2024-03-07T16:38:32;14.20;;;8.33;;
17361;SDS011;8798;51.938;4.348;2024-03-07T16:41:01;15.20;;;8.47;;
17361;SDS011;8798;51.938;4.348;2024-03-07T16:43:30;15.03;;;9.30;;
17361;SDS011;8798;51.938;4.348;2024-03-07T16:45:59;13.13;;;8.30;;
17361;SDS011;8798;51.938;4.348;2024-03-07T16:48:27;16.60;;;8.97;;
17361;SDS011;8798;51.938;4.348;2024-03-07T16:50:55;17.13;;;9.23;;
17361;SDS011;8798;51.938;4.348;2024-03-07T16:53:24;15.23;;;8.87;;
17361;SDS011;8798;51.938;4.348;2024-03-07T16:55:52;13.83;;;8.60;;
17361;SDS011;8798;51.938;4.348;2024-03-07T16:58:20;12.77;;;7.97;;
17361;SDS011;8798;51.938;4.348;2024-03-07T17:00:48;14.17;;;8.33;;
17361;SDS011;8798;51.938;4.348;2024-03-07T17:03:20;15.67;;;8.43;;
17361;SDS011;8798;51.938;4.348;2024-03-07T17:05:48;15.03;;;8.60;;
17361;SDS011;8798;51.938;4.348;2024-03-07T17:08:17;13.83;;;8.67;;
17361;SDS011;8798;51.938;4.348;2024-03-07T17:10:49;15.87;;;8.00;;
17361;SDS011;8798;51.938;4.348;2024-03-07T17:13:19;16.17;;;9.10;;
17361;SDS011;8798;51.938;4.348;2024-03-07T17:15:48;15.47;;;8.23;;
17361;SDS011;8798;51.938;4.348;2024-03-07T17:18:16;17.13;;;8.43;;
17361;SDS011;8798;51.938;4.348;2024-03-07T17:20:52;18.63;;;8.93;;
17361;SDS011;8798;51.938;4.348;2024-03-07T17:23:21;20.43;;;10.40;;
17361;SDS011;8798;51.938;4.348;2024-03-07T17:25:52;16.50;;;9.27;;
17361;SDS011;8798;51.938;4.348;2024-03-07T17:28:22;13.77;;;7.80;;
17361;SDS011;8798;51.938;4.348;2024-03-07T17:30:51;15.33;;;8.10;;
17361;SDS011;8798;51.938;4.348;2024-03-07T17:33:22;14.37;;;7.83;;
17361;SDS011;8798;51.938;4.348;2024-03-07T17:35:54;15.77;;;8.73;;
17361;SDS011;8798;51.938;4.348;2024-03-07T17:38:23;16.53;;;8.53;;
17361;SDS011;8798;51.938;4.348;2024-03-07T17:40:53;18.80;;;9.17;;
17361;SDS011;8798;51.938;4.348;2024-03-07T17:43:22;17.53;;;9.57;;
17361;SDS011;8798;51.938;4.348;2024-03-07T17:45:50;16.33;;;8.70;;
17361;SDS011;8798;51.938;4.348;2024-03-07T17:48:18;16.43;;;8.67;;
17361;SDS011;8798;51.938;4.348;2024-03-07T17:50:46;15.27;;;9.03;;
17361;SDS011;8798;51.938;4.348;2024-03-07T17:53:15;17.03;;;8.87;;
17361;SDS011;8798;51.938;4.348;2024-03-07T17:55:43;16.50;;;9.00;;
17361;SDS011;8798;51.938;4.348;2024-03-07T17:58:11;13.57;;;8.53;;
17361;SDS011;8798;51.938;4.348;2024-03-07T18:00:43;16.37;;;9.27;;
17361;SDS011;8798;51.938;4.348;2024-03-07T18:03:12;17.80;;;9.00;;
17361;SDS011;8798;51.938;4.348;2024-03-07T18:05:43;16.10;;;8.90;;
17361;SDS011;8798;51.938;4.348;2024-03-07T18:08:18;16.23;;;8.40;;
17361;SDS011;8798;51.938;4.348;2024-03-07T18:11:06;19.70;;;9.30;;
17361;SDS011;8798;51.938;4.348;2024-03-07T18:13:41;17.27;;;8.73;;
17361;SDS011;8798;51.938;4.348;2024-03-07T18:16:09;17.23;;;8.80;;
17361;SDS011;8798;51.938;4.348;2024-03-07T18:18:41;13.93;;;8.20;;
17361;SDS011;8798;51.938;4.348;2024-03-07T18:21:13;15.50;;;9.10;;
17361;SDS011;8798;51.938;4.348;2024-03-07T18:23:42;14.63;;;8.77;;
17361;SDS011;8798;51.938;4.348;2024-03-07T18:26:12;18.00;;;9.40;;
17361;SDS011;8798;51.938;4.348;2024-03-07T18:28:41;17.03;;;9.03;;
17361;SDS011;8798;51.938;4.348;2024-03-07T18:31:13;15.40;;;8.70;;
17361;SDS011;8798;51.938;4.348;2024-03-07T18:33:42;14.53;;;8.20;;
17361;SDS011;8798;51.938;4.348;2024-03-07T18:36:10;16.33;;;8.87;;
17361;SDS011;8798;51.938;4.348;2024-03-07T18:38:39;16.30;;;8.27;;
17361;SDS011;8798;51.938;4.348;2024-03-07T18:41:09;19.03;;;9.77;;
17361;SDS011;8798;51.938;4.348;2024-03-07T18:43:39;18.93;;;9.47;;
17361;SDS011;8798;51.938;4.348;2024-03-07T18:46:08;16.97;;;9.17;;
17361;SDS011;8798;51.938;4.348;2024-03-07T18:48:36;18.33;;;9.17;;
17361;SDS011;8798;51.938;4.348;2024-03-07T18:51:06;21.10;;;8.97;;
17361;SDS011;8798;51.938;4.348;2024-03-07T18:53:35;17.73;;;9.10;;
17361;SDS011;8798;51.938;4.348;2024-03-07T18:56:04;17.43;;;9.47;;
17361;SDS011;8798;51.938;4.348;2024-03-07T18:58:39;18.03;;;9.33;;
17361;SDS011;8798;51.938;4.348;2024-03-07T19:01:12;20.30;;;9.70;;
17361;SDS011;8798;51.938;4.348;2024-03-07T19:03:40;19.67;;;9.40;;
17361;SDS011;8798;51.938;4.348;2024-03-07T19:06:08;19.37;;;9.70;;
17361;SDS011;8798;51.938;4.348;2024-03-07T19:08:38;17.80;;;8.87;;
17361;SDS011;8798;51.938;4.348;2024-03-07T19:11:08;17.23;;;8.77;;
17361;SDS011;8798;51.938;4.348;2024-03-07T19:13:40;19.00;;;9.93;;
17361;SDS011;8798;51.938;4.348;2024-03-07T19:16:08;20.53;;;10.17;;
17361;SDS011;8798;51.938;4.348;2024-03-07T19:18:36;18.50;;;9.80;;
17361;SDS011;8798;51.938;4.348;2024-03-07T19:21:05;19.37;;;10.37;;
17361;SDS011;8798;51.938;4.348;2024-03-07T19:23:38;19.13;;;9.40;;
17361;SDS011;8798;51.938;4.348;2024-03-07T19:26:12;19.43;;;9.63;;
17361;SDS011;8798;51.938;4.348;2024-03-07T19:28:44;17.53;;;9.77;;
17361;SDS011;8798;51.938;4.348;2024-03-07T19:31:14;18.17;;;10.30;;
17361;SDS011;8798;51.938;4.348;2024-03-07T19:33:42;21.67;;;10.10;;
17361;SDS011;8798;51.938;4.348;2024-03-07T19:36:11;19.50;;;10.07;;
17361;SDS011;8798;51.938;4.348;2024-03-07T19:38:42;21.40;;;9.80;;
17361;SDS011;8798;51.938;4.348;2024-03-07T19:41:12;20.00;;;9.50;;
17361;SDS011;8798;51.938;4.348;2024-03-07T19:43:41;23.40;;;10.83;;
17361;SDS011;8798;51.938;4.348;2024-03-07T19:46:11;21.50;;;9.87;;
17361;SDS011;8798;51.938;4.348;2024-03-07T19:48:40;22.37;;;9.97;;
17361;SDS011;8798;51.938;4.348;2024-03-07T19:51:09;25.60;;;10.90;;
17361;SDS011;8798;51.938;4.348;2024-03-07T19:53:38;23.13;;;10.83;;
17361;SDS011;8798;51.938;4.348;2024-03-07T19:56:06;24.00;;;10.13;;
17361;SDS011;8798;51.938;4.348;2024-03-07T19:58:39;22.67;;;10.17;;
17361;SDS011;8798;51.938;4.348;2024-03-07T20:01:07;18.97;;;9.67;;
17361;SDS011;8798;51.938;4.348;2024-03-07T20:03:40;23.20;;;10.10;;
17361;SDS011;8798;51.938;4.348;2024-03-07T20:06:08;21.87;;;10.17;;
17361;SDS011;8798;51.938;4.348;2024-03-07T20:08:37;21.83;;;10.20;;
17361;SDS011;8798;51.938;4.348;2024-03-07T20:11:05;20.80;;;9.70;;
17361;SDS011;8798;51.938;4.348;2024-03-07T20:13:34;22.93;;;10.13;;
17361;SDS011;8798;51.938;4.348;2024-03-07T20:16:06;22.80;;;10.37;;
17361;SDS011;8798;51.938;4.348;2024-03-07T20:18:39;22.17;;;10.73;;
17361;SDS011;8798;51.938;4.348;2024-03-07T20:21:08;22.63;;;10.20;;
17361;SDS011;8798;51.938;4.348;2024-03-07T20:23:37;25.27;;;10.27;;
17361;SDS011;8798;51.938;4.348;2024-03-07T20:26:07;25.10;;;10.13;;
17361;SDS011;8798;51.938;4.348;2024-03-07T20:28:35;26.83;;;11.13;;
17361;SDS011;8798;51.938;4.348;2024-03-07T20:31:04;24.90;;;10.90;;
17361;SDS011;8798;51.938;4.348;2024-03-07T20:33:34;27.67;;;12.07;;
17361;SDS011;8798;51.938;4.348;2024-03-07T20:36:05;26.23;;;11.13;;
17361;SDS011;8798;51.938;4.348;2024-03-07T20:38:36;23.13;;;10.30;;
17361;SDS011;8798;51.938;4.348;2024-03-07T20:41:05;27.47;;;11.87;;
17361;SDS011;8798;51.938;4.348;2024-03-07T20:43:33;28.57;;;12.43;;
17361;SDS011;8798;51.938;4.348;2024-03-07T20:46:01;29.97;;;11.80;;